createdAt,value
2018-12-08T00:00:42.890Z,96071.55
2018-12-08T00:03:11.909Z,96078.66
2018-12-08T00:05:40.518Z,96057.97
2018-12-08T00:08:08.773Z,96056.12
2018-12-08T00:10:37.371Z,96063.13
2018-12-08T00:13:05.773Z,96063.94
2018-12-08T00:15:36.818Z,96058.63
2018-12-08T00:18:05.466Z,96074.22
2018-12-08T00:20:34.122Z,96065.36
2018-12-08T00:23:02.534Z,96069.31
2018-12-08T00:25:31.318Z,96066.89
2018-12-08T00:27:59.905Z,96068.73
2018-12-08T00:30:39.390Z,96072.98
2018-12-08T00:33:08.009Z,96067.41
2018-12-08T00:35:36.301Z,96070.58
2018-12-08T00:38:04.986Z,96079.80
2018-12-08T00:40:33.698Z,96072.28
2018-12-08T00:43:01.985Z,96090.02
2018-12-08T00:45:30.434Z,96082.52
2018-12-08T00:47:58.702Z,96075.62
2018-12-08T00:50:28.452Z,96098.16
2018-12-08T00:52:56.881Z,96082.94
2018-12-08T00:55:25.385Z,96079.03
2018-12-08T00:57:53.658Z,96053.98
2018-12-08T01:00:21.961Z,96052.08
2018-12-08T01:02:50.298Z,96051.93
2018-12-08T01:05:18.806Z,96060.13
2018-12-08T01:07:47.081Z,96078.09
2018-12-08T01:10:16.326Z,96070.69
2018-12-08T01:12:44.605Z,96082.78
2018-12-08T01:15:13.102Z,96088.02
2018-12-08T01:17:41.406Z,96104.92
2018-12-08T01:20:09.794Z,96102.73
2018-12-08T01:22:38.190Z,96112.14
2018-12-08T01:25:06.877Z,96113.09
2018-12-08T01:27:35.608Z,96122.39
2018-12-08T01:30:05.538Z,96108.07
2018-12-08T01:32:34.162Z,96106.80
2018-12-08T01:35:02.437Z,96115.30
2018-12-08T01:37:30.717Z,96122.23
2018-12-08T01:39:59.581Z,96128.58
2018-12-08T01:42:28.113Z,96119.62
2018-12-08T01:44:56.377Z,96123.49
2018-12-08T01:47:24.669Z,96129.71
2018-12-08T01:49:52.989Z,96117.77
2018-12-08T01:52:21.485Z,96119.09
2018-12-08T01:54:49.973Z,96140.17
2018-12-08T01:57:18.264Z,96125.62
2018-12-08T01:59:46.937Z,96130.55
2018-12-08T02:02:15.237Z,96128.00
2018-12-08T02:04:43.521Z,96137.88
2018-12-08T02:07:11.801Z,96144.55
2018-12-08T02:09:40.339Z,96130.84
2018-12-08T02:12:08.633Z,96133.89
2018-12-08T02:14:36.904Z,96127.05
2018-12-08T02:17:05.829Z,96118.47
2018-12-08T02:19:34.789Z,96131.30
2018-12-08T02:22:03.088Z,96131.55
2018-12-08T02:24:31.741Z,96137.13
2018-12-08T02:27:00.254Z,96125.81
2018-12-08T02:29:28.578Z,96128.47
2018-12-08T02:31:57.177Z,96144.31
2018-12-08T02:34:25.690Z,96119.01
2018-12-08T02:36:53.995Z,96135.63
2018-12-08T02:39:23.169Z,96138.16
2018-12-08T02:41:51.477Z,96118.23
2018-12-08T02:44:19.812Z,96127.53
2018-12-08T02:46:49.076Z,96137.86
2018-12-08T02:49:17.412Z,96134.95
2018-12-08T02:51:46.070Z,96134.66
2018-12-08T02:54:15.072Z,96146.64
2018-12-08T02:56:43.388Z,96162.94
2018-12-08T02:59:12.046Z,96167.66
2018-12-08T03:01:40.505Z,96159.02
2018-12-08T03:04:09.005Z,96149.88
2018-12-08T03:06:37.464Z,96150.56
2018-12-08T03:09:08.972Z,96159.12
2018-12-08T03:11:37.299Z,96152.09
2018-12-08T03:14:05.611Z,96139.59
2018-12-08T03:16:33.905Z,96149.02
2018-12-08T03:19:02.461Z,96143.86
2018-12-08T03:21:30.928Z,96114.81
2018-12-08T03:23:59.416Z,96130.52
2018-12-08T03:26:27.890Z,96116.69
2018-12-08T03:28:56.204Z,96129.05
2018-12-08T03:31:24.532Z,96138.34
2018-12-08T03:33:54.346Z,96121.60
2018-12-08T03:36:22.681Z,96144.67
2018-12-08T03:38:51.311Z,96144.15
2018-12-08T03:41:20.338Z,96156.04
2018-12-08T03:43:48.782Z,96137.13
2018-12-08T03:46:17.117Z,96132.94
2018-12-08T03:48:45.422Z,96137.22
2018-12-08T03:51:13.749Z,96136.18
2018-12-08T03:53:42.214Z,96132.23
2018-12-08T03:56:10.705Z,96136.59
2018-12-08T03:58:39.677Z,96138.16
2018-12-08T04:01:08.719Z,96133.74
2018-12-08T04:03:37.156Z,96137.31
2018-12-08T04:06:05.505Z,96130.67
2018-12-08T04:08:33.811Z,96138.50
2018-12-08T04:11:02.619Z,96129.98
2018-12-08T04:13:31.082Z,96121.84
2018-12-08T04:15:59.581Z,96123.54
2018-12-08T04:18:28.046Z,96122.59
2018-12-08T04:20:56.548Z,96126.72
2018-12-08T04:23:25.001Z,96121.47
2018-12-08T04:25:53.524Z,96116.44
2018-12-08T04:28:21.961Z,96108.27
2018-12-08T04:30:50.278Z,96106.74
2018-12-08T04:33:18.933Z,96109.98
2018-12-08T04:35:47.433Z,96099.44
2018-12-08T04:38:15.750Z,96103.80
2018-12-08T04:40:44.398Z,96107.95
2018-12-08T04:43:12.879Z,96107.78
2018-12-08T04:45:42.282Z,96098.02
2018-12-08T04:48:10.593Z,96093.89
2018-12-08T04:50:38.896Z,96098.97
2018-12-08T04:53:07.321Z,96105.62
2018-12-08T04:55:35.617Z,96097.36
2018-12-08T04:58:03.937Z,96104.48
2018-12-08T05:00:32.269Z,96103.48
2018-12-08T05:03:00.660Z,96089.36
2018-12-08T05:05:29.193Z,96098.97
2018-12-08T05:07:57.705Z,96111.68
2018-12-08T05:10:26.160Z,96113.87
2018-12-08T05:12:54.482Z,96096.55
2018-12-08T05:15:23.133Z,96097.33
2018-12-08T05:17:51.625Z,96096.09
2018-12-08T05:20:20.760Z,96094.50
2018-12-08T05:22:49.099Z,96087.39
2018-12-08T05:25:17.410Z,96086.61
2018-12-08T05:27:46.071Z,96090.59
2018-12-08T05:30:14.374Z,96085.58
2018-12-08T05:32:43.032Z,96074.63
2018-12-08T05:35:11.742Z,96085.28
2018-12-08T05:37:40.065Z,96077.23
2018-12-08T05:40:09.093Z,96080.26
2018-12-08T05:42:37.417Z,96080.17
2018-12-08T05:45:06.553Z,96067.91
2018-12-08T05:47:35.018Z,96068.42
2018-12-08T05:50:03.921Z,96052.40
2018-12-08T05:52:32.437Z,96056.91
2018-12-08T05:55:00.881Z,96050.69
2018-12-08T05:57:29.386Z,96046.05
2018-12-08T05:59:57.670Z,96058.75
2018-12-08T06:02:26.382Z,96074.45
2018-12-08T06:04:55.089Z,96061.78
2018-12-08T06:07:23.831Z,96062.07
2018-12-08T06:09:52.416Z,96066.97
2018-12-08T06:12:21.372Z,96058.54
2018-12-08T06:14:49.755Z,96062.32
2018-12-08T06:17:18.257Z,96075.81
2018-12-08T06:19:46.752Z,96059.31
2018-12-08T06:22:15.805Z,96054.97
2018-12-08T06:24:44.224Z,96059.43
2018-12-08T06:27:23.947Z,96039.52
2018-12-08T06:29:52.249Z,96050.47
2018-12-08T06:32:20.689Z,96063.50
2018-12-08T06:34:49.409Z,96047.27
2018-12-08T06:37:17.708Z,96055.88
2018-12-08T06:39:46.373Z,96046.13
2018-12-08T06:42:14.667Z,96044.30
2018-12-08T06:44:43.001Z,96042.09
2018-12-08T06:47:11.817Z,96048.18
2018-12-08T06:49:40.317Z,96053.44
2018-12-08T06:52:08.753Z,96042.52
2018-12-08T06:54:37.281Z,96043.85
2018-12-08T06:57:06.237Z,96059.33
2018-12-08T06:59:34.733Z,96054.77
2018-12-08T07:02:03.201Z,96051.59
2018-12-08T07:04:31.551Z,96057.36
2018-12-08T07:07:00.169Z,96057.42
2018-12-08T07:09:28.498Z,96061.48
2018-12-08T07:11:56.805Z,96057.80
2018-12-08T07:14:25.137Z,96066.05
2018-12-08T07:16:54.097Z,96051.44
2018-12-08T07:19:22.591Z,96055.14
2018-12-08T07:21:51.017Z,96048.50
2018-12-08T07:24:19.578Z,96060.45
2018-12-08T07:26:48.521Z,96036.75
2018-12-08T07:29:17.033Z,96044.89
2018-12-08T07:31:45.509Z,96040.27
2018-12-08T07:34:13.991Z,96046.19
2018-12-08T07:36:42.294Z,96041.08
2018-12-08T07:39:10.745Z,96044.72
2018-12-08T07:41:39.057Z,96035.05
2018-12-08T07:44:07.390Z,96042.33
2018-12-08T07:46:35.902Z,96033.55
2018-12-08T07:49:04.373Z,96036.00
2018-12-08T07:51:32.866Z,96043.67
2018-12-08T07:54:01.197Z,96034.38
2018-12-08T07:56:29.817Z,96027.02
2018-12-08T07:58:58.281Z,96028.95
2018-12-08T08:01:26.791Z,96047.55
2018-12-08T08:03:55.104Z,96029.61
2018-12-08T08:06:23.885Z,96024.88
2018-12-08T08:08:52.220Z,96023.91
2018-12-08T08:11:21.043Z,96008.49
2018-12-08T08:13:50.389Z,95998.41
2018-12-08T08:16:19.336Z,95995.75
2018-12-08T08:18:47.653Z,95989.45
2018-12-08T08:21:15.965Z,95988.12
2018-12-08T08:23:44.705Z,95995.55
2018-12-08T08:26:13.132Z,95998.85
2018-12-08T08:28:42.113Z,96004.88
2018-12-08T08:31:10.622Z,96015.67
2018-12-08T08:33:39.085Z,96019.27
2018-12-08T08:36:07.401Z,96019.42
2018-12-08T08:38:36.038Z,96013.30
2018-12-08T08:41:04.473Z,96028.80
2018-12-08T08:43:33.014Z,96029.77
2018-12-08T08:46:02.266Z,96020.61
2018-12-08T08:48:30.573Z,96014.13
2018-12-08T08:50:58.877Z,96014.06
2018-12-08T08:53:31.357Z,96023.66
2018-12-08T08:56:00.049Z,96019.09
2018-12-08T08:58:28.510Z,96017.77
2018-12-08T09:00:56.978Z,96000.02
2018-12-08T09:03:25.949Z,96013.39
2018-12-08T09:05:54.248Z,96017.32
2018-12-08T09:08:22.567Z,96009.11
2018-12-08T09:10:50.929Z,96010.38
2018-12-08T09:13:19.412Z,96014.91
2018-12-08T09:15:49.826Z,96019.00
2018-12-08T09:18:18.429Z,96013.20
2018-12-08T09:20:46.890Z,96009.90
2018-12-08T09:23:15.398Z,96010.03
2018-12-08T09:25:44.024Z,96017.27
2018-12-08T09:28:12.353Z,96007.74
2018-12-08T09:30:40.666Z,96017.20
2018-12-08T09:33:09.305Z,96015.30
2018-12-08T09:35:37.741Z,96010.80
2018-12-08T09:38:06.281Z,96006.75
2018-12-08T09:40:34.753Z,96007.03
2018-12-08T09:43:03.258Z,96016.32
2018-12-08T09:45:31.725Z,96022.11
2018-12-08T09:48:00.197Z,96006.28
2018-12-08T09:50:28.510Z,96003.19
2018-12-08T09:53:07.886Z,96003.45
2018-12-08T09:55:36.207Z,95999.52
2018-12-08T09:58:04.866Z,95998.08
2018-12-08T10:00:33.202Z,96007.72
2018-12-08T10:03:01.844Z,96003.09
2018-12-08T10:05:30.473Z,95991.13
2018-12-08T10:07:58.789Z,95974.10
2018-12-08T10:10:27.293Z,95990.91
2018-12-08T10:12:55.769Z,95998.17
2018-12-08T10:15:24.259Z,95991.77
2018-12-08T10:17:52.721Z,96001.48
2018-12-08T10:20:21.115Z,95998.19
2018-12-08T10:22:49.677Z,95982.35
2018-12-08T10:25:18.402Z,95987.77
2018-12-08T10:27:47.671Z,95995.30
2018-12-08T10:30:15.981Z,95993.20
2018-12-08T10:32:44.637Z,95984.87
2018-12-08T10:35:13.681Z,95968.12
2018-12-08T10:37:42.117Z,95970.20
2018-12-08T10:40:11.626Z,95975.98
2018-12-08T10:42:39.953Z,95978.64
2018-12-08T10:45:09.653Z,95973.77
2018-12-08T10:47:38.217Z,95968.11
2018-12-08T10:50:09.506Z,95979.48
2018-12-08T10:52:37.810Z,95953.19
2018-12-08T10:55:07.256Z,95954.34
2018-12-08T10:57:35.590Z,95980.55
2018-12-08T11:00:04.362Z,95987.21
2018-12-08T11:02:34.881Z,95973.12
2018-12-08T11:05:03.326Z,95962.78
2018-12-08T11:07:31.616Z,95963.88
2018-12-08T11:09:59.911Z,95961.34
2018-12-08T11:12:28.226Z,95956.70
2018-12-08T11:15:00.642Z,95990.20
2018-12-08T11:17:26.847Z,95971.57
2018-12-08T11:19:55.153Z,95968.80
2018-12-08T11:22:23.461Z,95962.09
2018-12-08T11:24:51.785Z,95966.73
2018-12-08T11:27:20.101Z,95948.91
2018-12-08T11:29:48.425Z,95967.74
2018-12-08T11:32:16.933Z,95964.64
2018-12-08T11:34:45.893Z,95945.16
2018-12-08T11:37:14.230Z,95945.94
2018-12-08T11:39:42.844Z,95960.75
2018-12-08T11:42:11.361Z,95962.08
2018-12-08T11:44:40.393Z,95955.27
2018-12-08T11:47:08.733Z,95949.66
2018-12-08T11:49:37.036Z,95969.16
2018-12-08T11:52:05.410Z,95974.11
2018-12-08T11:54:33.874Z,95965.78
2018-12-08T11:57:02.218Z,95967.89
2018-12-08T11:59:30.526Z,95974.39
2018-12-08T12:01:59.786Z,95982.52
2018-12-08T12:04:28.705Z,95967.21
2018-12-08T12:06:57.162Z,95962.90
2018-12-08T12:09:25.470Z,95968.95
2018-12-08T12:11:53.805Z,95960.30
2018-12-08T12:14:42.534Z,95956.34
2018-12-08T12:17:10.857Z,95970.02
2018-12-08T12:19:39.156Z,95958.93
2018-12-08T12:22:07.586Z,95955.41
2018-12-08T12:24:36.395Z,95931.75
2018-12-08T12:27:04.830Z,95966.52
2018-12-08T12:29:33.485Z,95955.36
2018-12-08T12:32:02.103Z,95956.29
2018-12-08T12:34:30.598Z,95962.62
2018-12-08T12:36:58.945Z,95967.32
2018-12-08T12:39:27.278Z,95966.52
2018-12-08T12:41:55.897Z,95957.15
2018-12-08T12:44:24.407Z,95956.97
2018-12-08T12:46:52.872Z,95948.59
2018-12-08T12:49:21.182Z,95951.47
2018-12-08T12:51:49.833Z,95946.80
2018-12-08T12:54:18.334Z,95952.69
2018-12-08T12:56:46.647Z,95968.45
2018-12-08T12:59:14.978Z,95988.02
2018-12-08T13:01:43.872Z,95940.82
2018-12-08T13:04:12.254Z,95959.03
2018-12-08T13:06:40.512Z,95960.16
2018-12-08T13:09:09.265Z,95951.64
2018-12-08T13:11:37.689Z,95955.36
2018-12-08T13:14:06.174Z,95957.70
2018-12-08T13:16:34.641Z,95958.42
2018-12-08T13:19:03.145Z,95943.29
2018-12-08T13:21:31.604Z,95943.67
2018-12-08T13:24:00.117Z,95941.23
2018-12-08T13:26:28.429Z,95948.55
2018-12-08T13:28:57.081Z,95949.87
2018-12-08T13:31:25.346Z,95933.16
2018-12-08T13:33:55.062Z,95937.25
2018-12-08T13:36:23.638Z,95947.36
2018-12-08T13:38:52.501Z,95941.67
2018-12-08T13:41:21.016Z,95953.70
2018-12-08T13:43:55.113Z,95948.41
2018-12-08T13:46:23.402Z,95948.09
2018-12-08T13:48:51.665Z,95948.09
2018-12-08T13:51:20.089Z,95954.94
2018-12-08T13:53:48.358Z,95939.19
2018-12-08T13:56:16.633Z,95958.33
2018-12-08T13:58:44.885Z,95941.46
2018-12-08T14:01:13.157Z,95941.67
2018-12-08T14:03:41.426Z,95945.21
2018-12-08T14:06:09.710Z,95954.34
2018-12-08T14:08:37.961Z,95947.71
2018-12-08T14:11:06.345Z,95951.22
2018-12-08T14:13:34.626Z,95943.92
2018-12-08T14:16:02.929Z,95943.04
2018-12-08T14:18:31.293Z,95922.77
2018-12-08T14:20:59.915Z,95922.81
2018-12-08T14:23:28.177Z,95931.13
2018-12-08T14:25:56.777Z,95922.69
2018-12-08T14:28:25.145Z,95916.13
2018-12-08T14:30:53.713Z,95928.14
2018-12-08T14:33:22.181Z,95928.65
2018-12-08T14:35:50.694Z,95927.60
2018-12-08T14:38:19.157Z,95913.56
2018-12-08T14:40:47.814Z,95910.40
2018-12-08T14:43:16.077Z,95909.77
2018-12-08T14:45:44.609Z,95901.49
2018-12-08T14:48:12.901Z,95912.64
2018-12-08T14:50:41.185Z,95912.16
2018-12-08T14:53:09.565Z,95920.63
2018-12-08T14:55:37.864Z,95915.06
2018-12-08T14:58:06.625Z,95918.78
2018-12-08T15:00:34.972Z,95904.65
2018-12-08T15:03:03.523Z,95896.38
2018-12-08T15:05:31.943Z,95909.45
2018-12-08T15:08:00.249Z,95910.98
2018-12-08T15:10:28.877Z,95924.91
2018-12-08T15:12:57.169Z,95913.23
2018-12-08T15:15:25.438Z,95872.98
2018-12-08T15:17:53.865Z,95934.00
2018-12-08T15:20:22.351Z,95908.96
2018-12-08T15:22:50.830Z,95914.77
2018-12-08T15:25:19.102Z,95906.22
2018-12-08T15:27:48.050Z,95916.31
2018-12-08T15:30:16.444Z,95925.39
2018-12-08T15:32:47.185Z,95920.10
2018-12-08T15:35:16.236Z,95924.39
2018-12-08T15:37:44.761Z,95923.94
2018-12-08T15:40:14.281Z,95925.55
2018-12-08T15:42:42.774Z,95914.12
2018-12-08T15:45:11.749Z,95923.72
2018-12-08T15:47:40.245Z,95912.78
2018-12-08T15:50:10.069Z,95927.45
2018-12-08T15:52:38.362Z,95914.67
2018-12-08T15:55:06.862Z,95913.88
2018-12-08T15:57:35.125Z,95921.34
2018-12-08T16:00:03.825Z,95914.13
2018-12-08T16:02:32.205Z,95911.45
2018-12-08T16:05:00.604Z,95911.23
2018-12-08T16:07:28.994Z,95898.41
2018-12-08T16:09:57.291Z,95891.78
2018-12-08T16:12:25.549Z,95898.13
2018-12-08T16:14:53.837Z,95879.72
2018-12-08T16:17:22.210Z,95866.11
2018-12-08T16:19:50.490Z,95872.56
2018-12-08T16:22:18.753Z,95865.89
2018-12-08T16:24:47.045Z,95867.26
2018-12-08T16:27:15.438Z,95857.71
2018-12-08T16:29:47.879Z,95858.20
2018-12-08T16:32:16.189Z,95851.05
2018-12-08T16:34:44.994Z,95857.69
2018-12-08T16:37:13.441Z,95849.19
2018-12-08T16:39:41.836Z,95845.47
2018-12-08T16:42:10.274Z,95842.52
2018-12-08T16:44:38.958Z,95851.85
2018-12-08T16:47:07.401Z,95863.30
2018-12-08T16:49:35.687Z,95850.19
2018-12-08T16:52:04.461Z,95841.41
2018-12-08T16:54:32.749Z,95842.74
2018-12-08T16:57:01.365Z,95853.10
2018-12-08T16:59:29.793Z,95830.97
2018-12-08T17:01:58.282Z,95827.75
2018-12-08T17:04:26.571Z,95823.48
2018-12-08T17:06:55.386Z,95810.96
2018-12-08T17:09:23.790Z,95815.45
2018-12-08T17:11:52.101Z,95809.34
2018-12-08T17:14:20.853Z,95802.41
2018-12-08T17:16:49.294Z,95810.94
2018-12-08T17:19:17.578Z,95797.86
2018-12-08T17:21:46.137Z,95781.11
2018-12-08T17:24:14.605Z,95790.97
2018-12-08T17:26:43.102Z,95788.63
2018-12-08T17:29:11.629Z,95775.53
2018-12-08T17:31:40.231Z,95779.53
2018-12-08T17:34:08.534Z,95784.08
2018-12-08T17:36:36.830Z,95772.11
2018-12-08T17:39:06.755Z,95773.45
2018-12-08T17:41:35.046Z,95773.48
2018-12-08T17:44:03.763Z,95766.80
2018-12-08T17:46:32.489Z,95738.84
2018-12-08T17:49:01.473Z,95723.08
2018-12-08T17:51:29.757Z,95716.94
2018-12-08T17:54:00.154Z,95700.70
2018-12-08T17:56:28.542Z,95707.34
2018-12-08T17:58:56.797Z,95690.04
2018-12-08T18:01:25.673Z,95678.28
2018-12-08T18:03:53.944Z,95698.00
2018-12-08T18:06:22.313Z,95696.66
2018-12-08T18:08:50.587Z,95692.17
2018-12-08T18:11:18.980Z,95701.22
2018-12-08T18:13:47.495Z,95686.57
2018-12-08T18:16:16.016Z,95674.08
2018-12-08T18:18:44.350Z,95673.78
2018-12-08T18:21:15.472Z,95674.58
2018-12-08T18:23:45.374Z,95654.08
2018-12-08T18:26:14.638Z,95669.78
2018-12-08T18:28:45.136Z,95658.86
2018-12-08T18:31:15.977Z,95664.70
2018-12-08T18:33:46.350Z,95645.23
2018-12-08T18:36:15.938Z,95645.24
2018-12-08T18:38:45.597Z,95621.27
2018-12-08T18:41:15.645Z,95625.78
2018-12-08T18:43:45.371Z,95620.75
2018-12-08T18:46:14.837Z,95621.00
2018-12-08T18:48:44.415Z,95602.87
2018-12-08T18:51:14.066Z,95607.16
2018-12-08T18:53:43.189Z,95590.38
2018-12-08T18:56:13.365Z,95583.69
2018-12-08T18:58:42.725Z,95581.28
2018-12-08T19:01:11.640Z,95569.83
2018-12-08T19:03:40.937Z,95549.31
2018-12-08T19:06:14.151Z,95558.09
2018-12-08T19:08:43.265Z,95558.11
2018-12-08T19:11:12.092Z,95547.72
2018-12-08T19:13:40.857Z,95545.30
2018-12-08T19:16:09.130Z,95532.50
2018-12-08T19:18:37.419Z,95528.23
2018-12-08T19:21:05.682Z,95504.52
2018-12-08T19:23:34.641Z,95506.63
2018-12-08T19:26:05.711Z,95487.16
2018-12-08T19:28:34.377Z,95498.88
2018-12-08T19:31:02.823Z,95513.31
2018-12-08T19:33:32.758Z,95480.48
2018-12-08T19:36:02.045Z,95490.08
2018-12-08T19:38:30.837Z,95492.20
2018-12-08T19:40:59.558Z,95465.80
2018-12-08T19:43:28.892Z,95455.63
2018-12-08T19:46:01.671Z,95450.04
2018-12-08T19:48:30.324Z,95427.89
2018-12-08T19:50:59.078Z,95430.53
2018-12-08T19:53:27.850Z,95405.98
2018-12-08T19:55:56.656Z,95404.89
2018-12-08T19:58:25.612Z,95403.56
2018-12-08T20:00:54.705Z,95386.20
2018-12-08T20:03:23.019Z,95377.66
2018-12-08T20:05:51.314Z,95368.29
2018-12-08T20:08:19.586Z,95366.95
2018-12-08T20:10:48.995Z,95358.68
2018-12-08T20:13:17.309Z,95358.12
2018-12-08T20:15:45.789Z,95350.34
2018-12-08T20:18:14.053Z,95346.58
2018-12-08T20:20:42.412Z,95333.50
2018-12-08T20:23:10.698Z,95337.23
2018-12-08T20:25:39.370Z,95342.27
2018-12-08T20:28:07.650Z,95349.75
2018-12-08T20:30:35.941Z,95345.47
2018-12-08T20:33:04.334Z,95339.88
2018-12-08T20:35:32.605Z,95349.25
2018-12-08T20:38:00.890Z,95330.03
2018-12-08T20:40:29.242Z,95311.64
2018-12-08T20:43:00.499Z,95301.20
2018-12-08T20:45:29.886Z,95289.45
2018-12-08T20:48:00.189Z,95280.61
2018-12-08T20:50:29.694Z,95263.52
2018-12-08T20:53:00.302Z,95272.28
2018-12-08T20:55:29.281Z,95267.48
2018-12-08T20:57:58.666Z,95261.34
2018-12-08T21:00:27.921Z,95254.09
2018-12-08T21:02:56.982Z,95235.14
2018-12-08T21:05:25.567Z,95233.04
2018-12-08T21:07:56.109Z,95235.40
2018-12-08T21:10:25.238Z,95224.14
2018-12-08T21:12:54.397Z,95218.53
2018-12-08T21:15:23.972Z,95213.19
2018-12-08T21:17:53.377Z,95201.44
2018-12-08T21:20:22.421Z,95199.26
2018-12-08T21:22:50.738Z,95199.26
2018-12-08T21:25:20.054Z,95205.39
2018-12-08T21:27:51.333Z,95184.23
2018-12-08T21:30:21.155Z,95159.77
2018-12-08T21:32:50.242Z,95156.66
2018-12-08T21:35:20.278Z,95173.61
2018-12-08T21:37:52.775Z,95165.05
2018-12-08T21:40:29.335Z,95142.95
2018-12-08T21:42:58.369Z,95154.75
2018-12-08T21:45:28.785Z,95155.77
2018-12-08T21:47:57.101Z,95153.15
2018-12-08T21:50:25.373Z,95148.34
2018-12-08T21:52:53.674Z,95141.88
2018-12-08T21:55:21.957Z,95141.13
2018-12-08T21:57:50.251Z,95149.46
2018-12-08T22:00:18.628Z,95121.21
2018-12-08T22:02:47.142Z,95129.48
2018-12-08T22:05:15.545Z,95123.88
2018-12-08T22:07:43.861Z,95119.62
2018-12-08T22:10:12.171Z,95120.20
2018-12-08T22:12:40.962Z,95117.02
2018-12-08T22:15:14.684Z,95131.74
2018-12-08T22:17:43.265Z,95154.13
2018-12-08T22:20:12.157Z,95161.91
2018-12-08T22:22:40.649Z,95123.87
2018-12-08T22:25:10.725Z,95124.23
2018-12-08T22:27:40.095Z,95119.31
2018-12-08T22:30:10.573Z,95110.20
2018-12-08T22:32:42.507Z,95104.72
2018-12-08T22:35:11.991Z,95096.93
2018-12-08T22:37:43.221Z,95099.13
2018-12-08T22:40:13.566Z,95107.98
2018-12-08T22:42:42.346Z,95103.08
2018-12-08T22:45:11.904Z,95094.48
2018-12-08T22:47:41.244Z,95103.13
2018-12-08T22:50:11.684Z,95089.34
2018-12-08T22:52:43.966Z,95111.86
2018-12-08T22:55:15.604Z,95121.21
2018-12-08T22:57:45.023Z,95120.78
2018-12-08T23:00:48.172Z,95117.77
2018-12-08T23:03:18.173Z,95108.58
2018-12-08T23:05:47.669Z,95102.17
2018-12-08T23:08:18.169Z,95094.27
2018-12-08T23:10:47.800Z,95112.29
2018-12-08T23:13:16.130Z,95117.39
2018-12-08T23:15:44.537Z,95115.27
2018-12-08T23:18:12.801Z,95114.28
2018-12-08T23:20:41.155Z,95119.47
2018-12-08T23:23:09.592Z,95116.27
2018-12-08T23:25:38.097Z,95113.34
2018-12-08T23:28:08.789Z,95111.96
2018-12-08T23:30:38.661Z,95106.63
2018-12-08T23:33:07.440Z,95099.47
2018-12-08T23:35:36.762Z,95107.39
2018-12-08T23:38:05.656Z,95081.03
2018-12-08T23:40:37.300Z,95095.16
2018-12-08T23:43:06.385Z,95093.61
2018-12-08T23:45:36.896Z,95101.30
2018-12-08T23:48:05.181Z,95093.84
2018-12-08T23:50:33.452Z,95069.30
2018-12-08T23:53:01.725Z,95070.95
2018-12-08T23:55:30.139Z,95089.03
2018-12-08T23:57:58.397Z,95088.98
